Time;durP1;ratioP1;P1;durP2;ratioP2;P2;SDS_P1;SDS_P2;PMS_P1;PMS_P2;Temp;Humidity;BMP_temperature;BMP_pressure;BME280_temperature;BME280_humidity;BME280_pressure;Samples;Min_cycle;Max_cycle;Signal;HPM_P1;HPM_P2
2021/01/03 00:00:39;;;;;;;22.83;14.50;;;;;;;11.52;nan;101118.47;4978793;28;98315;-72
2021/01/03 00:03:06;;;;;;;23.38;15.18;;;;;;;11.53;nan;101115.91;4979448;28;97334;-72
2021/01/03 00:05:34;;;;;;;24.00;14.30;;;;;;;11.52;nan;101119.38;4979252;28;98075;-72
2021/01/03 00:08:02;;;;;;;23.00;15.65;;;;;;;11.52;nan;101114.13;4977074;28;103129;-72
2021/01/03 00:10:30;;;;;;;29.38;15.38;;;;;;;11.53;nan;101115.91;4961594;28;98934;-72
2021/01/03 00:12:58;;;;;;;23.52;14.93;;;;;;;11.54;nan;101111.56;4977428;28;97085;-72
2021/01/03 00:15:25;;;;;;;23.50;15.55;;;;;;;11.53;nan;101115.91;4958703;28;97739;-72
2021/01/03 00:17:53;;;;;;;26.83;15.38;;;;;;;11.51;nan;101104.44;4964226;28;98900;-72
2021/01/03 00:20:23;;;;;;;22.98;14.18;;;;;;;11.54;nan;101108.94;4980904;28;98182;-73
2021/01/03 00:22:51;;;;;;;24.73;14.32;;;;;;;11.53;nan;101108.03;4964101;28;97238;-72
2021/01/03 00:25:21;;;;;;;26.48;15.35;;;;;;;11.52;nan;101116.75;4982372;28;97560;-73
2021/01/03 00:27:50;;;;;;;46.28;26.08;;;;;;;11.53;nan;101097.50;4961895;28;97510;-75
2021/01/03 00:30:21;;;;;;;35.33;20.80;;;;;;;11.53;nan;101109.78;4980683;28;98078;-73
2021/01/03 00:32:51;;;;;;;27.35;16.10;;;;;;;11.52;nan;101113.22;4965291;28;97338;-73
2021/01/03 00:35:25;;;;;;;24.08;14.48;;;;;;;11.51;nan;101122.84;4984340;28;97644;-72
2021/01/03 00:37:59;;;;;;;20.67;13.82;;;;;;;11.46;nan;101120.78;4981180;28;98581;-73
2021/01/03 00:40:29;;;;;;;25.65;14.98;;;;;;;11.44;nan;101119.81;4964619;28;97437;-73
2021/01/03 00:43:16;;;;;;;22.77;14.07;;;;;;;11.41;nan;101124.88;4984022;28;97626;-71
2021/01/03 00:45:44;;;;;;;20.27;13.73;;;;;;;11.43;nan;101132.03;4964391;28;97747;-72
2021/01/03 00:48:12;;;;;;;20.27;14.55;;;;;;;11.44;nan;101132.94;4981047;28;98203;-73
2021/01/03 00:50:42;;;;;;;21.58;13.45;;;;;;;11.43;nan;101134.66;4982627;28;98081;-71
2021/01/03 00:53:12;;;;;;;20.13;12.85;;;;;;;11.41;nan;101114.34;4982616;28;97194;-73
2021/01/03 00:55:39;;;;;;;19.83;13.65;;;;;;;11.42;nan;101106.56;4983676;28;97130;-72
2021/01/03 00:58:07;;;;;;;21.25;14.27;;;;;;;11.45;nan;101103.19;4963780;28;101680;-72
2021/01/03 01:00:36;;;;;;;22.88;14.05;;;;;;;11.44;nan;101094.38;4963432;28;96896;-72
2021/01/03 01:03:05;;;;;;;19.30;12.98;;;;;;;11.43;nan;101095.22;4981039;28;96991;-72
2021/01/03 01:05:33;;;;;;;20.35;13.35;;;;;;;11.42;nan;101096.03;4982104;28;97884;-72
2021/01/03 01:08:01;;;;;;;19.08;12.70;;;;;;;11.42;nan;101096.03;4980989;28;97565;-74
2021/01/03 01:10:30;;;;;;;20.35;13.90;;;;;;;11.41;nan;101094.22;4964460;28;97495;-73
2021/01/03 01:13:17;;;;;;;18.60;12.10;;;;;;;11.38;nan;101091.44;4965578;28;97969;-71
2021/01/03 01:15:46;;;;;;;18.60;12.23;;;;;;;11.39;nan;101094.94;4980481;28;97235;-72
2021/01/03 01:18:14;;;;;;;20.15;13.75;;;;;;;11.39;nan;101087.97;4981145;28;97908;-73
2021/01/03 01:20:41;;;;;;;17.92;12.27;;;;;;;11.40;nan;101084.53;4978561;28;98109;-72
2021/01/03 01:23:09;;;;;;;21.40;14.00;;;;;;;11.37;nan;101086.97;4962354;28;97434;-72
2021/01/03 01:25:37;;;;;;;22.17;13.68;;;;;;;11.39;nan;101079.16;4946691;28;98068;-71
2021/01/03 01:28:05;;;;;;;21.88;13.75;;;;;;;11.37;nan;101079.09;4962524;28;98007;-73
2021/01/03 01:30:34;;;;;;;19.50;12.80;;;;;;;11.38;nan;101080.91;4980366;28;99922;-72
2021/01/03 01:33:05;;;;;;;24.15;14.25;;;;;;;11.39;nan;101080.06;4981141;28;97909;-71
2021/01/03 01:35:33;;;;;;;24.33;15.15;;;;;;;11.38;nan;101074.75;4982041;28;98353;-71
2021/01/03 01:38:03;;;;;;;19.88;14.73;;;;;;;11.38;nan;101077.38;4962302;28;99890;-70
2021/01/03 01:40:32;;;;;;;21.40;13.75;;;;;;;11.36;nan;101071.13;4980286;28;99556;-71
2021/01/03 01:43:01;;;;;;;20.45;13.32;;;;;;;11.33;nan;101079.72;4964227;28;97055;-73
2021/01/03 01:45:32;;;;;;;24.40;13.38;;;;;;;11.35;nan;101070.19;4963280;28;97061;-72
2021/01/03 01:48:02;;;;;;;21.50;14.43;;;;;;;11.35;nan;101080.72;4961515;28;97928;-72
2021/01/03 01:50:35;;;;;;;19.45;13.88;;;;;;;11.38;nan;101078.28;4980724;28;97765;-72
2021/01/03 01:53:05;;;;;;;23.45;14.15;;;;;;;11.38;nan;101072.09;4964128;28;97149;-73
2021/01/03 01:55:39;;;;;;;21.75;15.32;;;;;;;11.38;nan;101065.13;4962390;28;97375;-73
2021/01/03 01:58:17;;;;;;;22.80;14.55;;;;;;;11.39;nan;101064.28;4962508;28;97573;-73
2021/01/03 02:00:50;;;;;;;21.90;13.68;;;;;;;11.42;nan;101067.13;4980447;28;102577;-72
2021/01/03 02:03:22;;;;;;;20.92;14.00;;;;;;;11.42;nan;101067.13;4979843;28;97100;-72
2021/01/03 02:06:13;;;;;;;22.70;13.75;;;;;;;11.42;nan;101064.47;4979268;28;97180;-73
2021/01/03 02:08:45;;;;;;;24.02;14.95;;;;;;;11.47;nan;101067.34;4961726;28;98285;-73
2021/01/03 02:11:16;;;;;;;26.98;15.05;;;;;;;11.49;nan;101065.69;4980291;28;97350;-73
2021/01/03 02:13:46;;;;;;;24.38;15.32;;;;;;;11.51;nan;101064.97;4969605;28;96691;-73
2021/01/03 02:16:15;;;;;;;24.45;13.73;;;;;;;11.53;nan;101072.94;4963472;28;97489;-72
2021/01/03 02:18:44;;;;;;;25.85;15.68;;;;;;;11.53;nan;101059.78;4962665;28;97909;-73
2021/01/03 02:21:18;;;;;;;21.80;13.30;;;;;;;11.52;nan;101057.97;4979066;28;98170;-72
2021/01/03 02:23:52;;;;;;;20.40;13.82;;;;;;;11.55;nan;101061.66;4977933;28;97437;-72
2021/01/03 02:26:22;;;;;;;24.40;14.38;;;;;;;11.57;nan;101053.88;4963628;28;97257;-71
2021/01/03 02:28:50;;;;;;;21.98;13.52;;;;;;;11.51;nan;101051.81;4979435;28;97608;-72
2021/01/03 02:31:21;;;;;;;24.13;14.80;;;;;;;11.52;nan;101048.34;4962027;28;97879;-72
2021/01/03 02:33:50;;;;;;;20.77;13.73;;;;;;;11.48;nan;101053.38;4962332;28;97908;-72
2021/01/03 02:36:26;;;;;;;23.35;14.25;;;;;;;11.46;nan;101055.91;4980072;28;97822;-73
2021/01/03 02:39:01;;;;;;;20.80;13.15;;;;;;;11.46;nan;101058.53;4977949;28;97955;-72
2021/01/03 02:41:29;;;;;;;21.48;15.05;;;;;;;11.46;nan;101053.28;4962189;28;97831;-72
2021/01/03 02:43:57;;;;;;;22.15;13.98;;;;;;;11.48;nan;101056.03;4979948;28;98508;-72
2021/01/03 02:46:26;;;;;;;20.83;14.48;;;;;;;11.45;nan;101064.63;4980338;28;97172;-71
2021/01/03 02:48:54;;;;;;;18.98;13.40;;;;;;;11.45;nan;101062.00;4979918;28;96900;-73
2021/01/03 02:51:23;;;;;;;20.30;14.20;;;;;;;11.46;nan;101050.66;4962145;28;98006;-72
2021/01/03 02:53:51;;;;;;;20.70;14.10;;;;;;;11.48;nan;101056.91;4980364;28;97086;-73
2021/01/03 02:56:18;;;;;;;18.63;13.07;;;;;;;11.48;nan;101046.38;4979786;28;97532;-73
2021/01/03 02:59:06;;;;;;;19.98;13.98;;;;;;;11.50;nan;101044.72;4979224;28;97502;-71
2021/01/03 03:01:33;;;;;;;20.95;13.02;;;;;;;11.52;nan;101050.06;4959104;28;99808;-72
2021/01/03 03:04:02;;;;;;;17.80;12.60;;;;;;;11.52;nan;101050.97;4978492;28;97676;-72
2021/01/03 03:06:29;;;;;;;22.00;13.90;;;;;;;11.49;nan;101049.91;4979010;28;97376;-73
2021/01/03 03:08:57;;;;;;;20.10;12.75;;;;;;;11.48;nan;101046.38;4945403;28;99273;-72
2021/01/03 03:11:25;;;;;;;18.33;12.65;;;;;;;11.48;nan;101051.63;4978091;28;98069;-72
2021/01/03 03:13:52;;;;;;;18.45;13.80;;;;;;;11.50;nan;101043.81;4981090;28;97646;-70
2021/01/03 03:16:21;;;;;;;20.08;13.18;;;;;;;11.50;nan;101039.47;4961670;28;97781;-72
2021/01/03 03:18:49;;;;;;;17.08;12.27;;;;;;;11.47;nan;101030.50;4960917;28;99804;-71
2021/01/03 03:21:18;;;;;;;19.35;12.50;;;;;;;11.45;nan;101032.16;4959574;28;100572;-71
2021/01/03 03:23:45;;;;;;;18.88;11.73;;;;;;;11.43;nan;101033.78;4962065;28;97374;-72
2021/01/03 03:26:14;;;;;;;18.77;13.45;;;;;;;11.40;nan;101034.56;4962393;28;98404;-72
2021/01/03 03:28:41;;;;;;;16.63;11.90;;;;;;;11.38;nan;101024.75;4961139;28;99055;-71
2021/01/03 03:31:09;;;;;;;17.80;12.27;;;;;;;11.38;nan;101028.31;4977188;28;98070;-71
2021/01/03 03:33:37;;;;;;;20.65;12.90;;;;;;;11.38;nan;101033.56;4961220;28;97697;-73
2021/01/03 03:36:05;;;;;;;19.15;12.77;;;;;;;11.39;nan;101037.06;4980103;28;97724;-70
2021/01/03 03:38:32;;;;;;;16.85;11.77;;;;;;;11.40;nan;101028.38;4978788;28;97705;-73
2021/01/03 03:41:03;;;;;;;16.83;11.77;;;;;;;11.39;nan;101026.56;4944037;28;98798;-72
2021/01/03 03:43:31;;;;;;;16.60;11.93;;;;;;;11.37;nan;101022.97;4979028;28;96860;-71
2021/01/03 03:45:59;;;;;;;16.70;10.73;;;;;;;11.33;nan;101019.25;4979151;28;97415;-72
2021/01/03 03:48:27;;;;;;;18.70;11.63;;;;;;;11.34;nan;101028.97;4978202;28;97788;-72
2021/01/03 03:50:56;;;;;;;17.27;10.90;;;;;;;11.36;nan;101026.41;4961142;28;96791;-72
2021/01/03 03:53:27;;;;;;;16.92;11.45;;;;;;;11.35;nan;101014.09;4962014;28;97612;-72
2021/01/03 03:55:55;;;;;;;14.02;9.73;;;;;;;11.33;nan;101016.63;4960951;28;97562;-72
2021/01/03 03:58:23;;;;;;;15.00;10.32;;;;;;;11.35;nan;101020.22;4979351;28;99058;-71
2021/01/03 04:00:50;;;;;;;14.45;10.32;;;;;;;11.32;nan;101019.16;4979803;28;98364;-72
2021/01/03 04:03:19;;;;;;;13.68;10.43;;;;;;;11.30;nan;101018.19;4961446;28;98225;-72
2021/01/03 04:05:47;;;;;;;14.15;10.13;;;;;;;11.32;nan;101024.44;4981117;28;97716;-72
2021/01/03 04:08:16;;;;;;;13.75;10.30;;;;;;;11.36;nan;101011.53;4962361;28;98392;-72
2021/01/03 04:10:43;;;;;;;15.85;10.70;;;;;;;11.39;nan;101014.31;4963012;28;97472;-74
2021/01/03 04:13:11;;;;;;;13.90;9.77;;;;;;;11.42;nan;101016.22;4980715;28;98166;-72
2021/01/03 04:15:39;;;;;;;13.80;10.25;;;;;;;11.41;nan;101010.06;4980147;28;98311;-72
2021/01/03 04:18:08;;;;;;;14.90;9.95;;;;;;;11.41;nan;101009.13;4960595;28;97890;-71
2021/01/03 04:20:36;;;;;;;12.45;9.88;;;;;;;11.42;nan;101005.69;4960576;28;98297;-72
2021/01/03 04:23:07;;;;;;;15.30;10.20;;;;;;;11.43;nan;101012.75;4981919;28;97245;-72
2021/01/03 04:25:37;;;;;;;16.17;10.50;;;;;;;11.42;nan;101011.88;4963163;28;97549;-72
2021/01/03 04:28:06;;;;;;;12.50;9.43;;;;;;;11.40;nan;101008.25;4960589;28;97174;-72
2021/01/03 04:30:34;;;;;;;13.85;9.95;;;;;;;11.40;nan;101016.16;4960922;28;97018;-73
2021/01/03 04:33:05;;;;;;;13.50;10.18;;;;;;;11.41;nan;101014.41;4961195;28;97653;-72
2021/01/03 04:35:33;;;;;;;11.43;9.25;;;;;;;11.44;nan;101004.94;4980334;28;98210;-72
2021/01/03 04:38:01;;;;;;;13.43;10.00;;;;;;;11.41;nan;100995.97;4977056;28;97808;-72
2021/01/03 04:40:31;;;;;;;10.82;9.10;;;;;;;11.40;nan;100997.72;4978947;28;97971;-73
2021/01/03 04:43:01;;;;;;;10.65;8.85;;;;;;;11.40;nan;101003.00;4977903;28;97491;-74
2021/01/03 04:46:10;;;;;;;10.43;8.13;;;;;;;11.40;nan;101008.25;4977005;28;97794;-72
2021/01/03 04:48:37;;;;;;;9.73;8.27;;;;;;;11.44;nan;101002.31;4977970;28;98376;-72
2021/01/03 04:51:13;;;;;;;9.90;8.20;;;;;;;11.44;nan;101002.31;4977418;28;98185;-72
2021/01/03 04:53:56;;;;;;;10.00;7.85;;;;;;;11.44;nan;100999.69;4978822;28;97167;-72
2021/01/03 04:56:31;;;;;;;10.45;8.00;;;;;;;11.45;nan;101001.50;4979055;28;97008;-72
2021/01/03 04:59:29;;;;;;;11.68;8.50;;;;;;;11.43;nan;101004.88;4981165;28;98348;-72
2021/01/03 05:02:11;;;;;;;8.25;7.32;;;;;;;11.40;nan;101003.00;4974759;28;99058;-70
2021/01/03 05:05:03;;;;;;;9.05;7.60;;;;;;;11.40;nan;101003.00;4976934;28;97138;-70
2021/01/03 05:07:33;;;;;;;8.93;7.63;;;;;;;11.43;nan;100996.97;4963094;28;97717;-71
2021/01/03 05:10:08;;;;;;;8.40;7.35;;;;;;;11.44;nan;101002.31;4980456;28;97299;-71
2021/01/03 05:13:01;;;;;;;8.40;7.38;;;;;;;11.44;nan;100997.03;4981237;28;99733;-70
2021/01/03 05:15:31;;;;;;;11.57;7.20;;;;;;;11.43;nan;100992.63;4979141;28;97632;-71
2021/01/03 05:18:00;;;;;;;8.45;7.20;;;;;;;11.45;nan;100993.63;4980283;28;97385;-71
2021/01/03 05:20:28;;;;;;;8.63;6.60;;;;;;;11.45;nan;100995.34;4981022;28;98565;-71
2021/01/03 05:23:13;;;;;;;7.70;6.90;;;;;;;11.42;nan;100993.47;4962997;28;97940;-72
2021/01/03 05:25:41;;;;;;;8.27;6.75;;;;;;;11.42;nan;100995.19;4981829;28;96952;-71
2021/01/03 05:28:13;;;;;;;7.28;6.57;;;;;;;11.43;nan;100997.88;4981437;28;96836;-71
2021/01/03 05:30:42;;;;;;;7.13;6.38;;;;;;;11.44;nan;100986.53;4979680;28;97507;-71
2021/01/03 05:33:11;;;;;;;7.10;6.10;;;;;;;11.44;nan;100991.78;4980630;28;97986;-71
2021/01/03 05:35:41;;;;;;;9.88;6.88;;;;;;;11.45;nan;100990.06;4979956;28;97240;-71
2021/01/03 05:38:09;;;;;;;8.57;6.30;;;;;;;11.47;nan;100988.44;4980933;28;97108;-71
2021/01/03 05:40:40;;;;;;;7.53;6.72;;;;;;;11.47;nan;100985.78;4979116;28;96857;-72
2021/01/03 05:43:29;;;;;;;9.70;7.32;;;;;;;11.46;nan;100990.13;4981512;28;97656;-71
2021/01/03 05:46:11;;;;;;;9.13;7.00;;;;;;;11.41;nan;100996.91;4963657;28;96739;-71
2021/01/03 05:48:42;;;;;;;7.15;6.43;;;;;;;11.41;nan;100988.09;4979840;28;98124;-70
2021/01/03 05:51:12;;;;;;;7.43;6.05;;;;;;;11.40;nan;100984.59;4979933;28;96698;-71
2021/01/03 05:53:40;;;;;;;7.50;6.38;;;;;;;11.40;nan;100996.81;4981238;28;96925;-71
2021/01/03 05:56:20;;;;;;;7.25;6.32;;;;;;;11.33;nan;101000.81;4963586;28;97397;-70
2021/01/03 05:58:53;;;;;;;7.88;6.53;;;;;;;11.28;nan;101002.31;4979126;28;97074;-72
2021/01/03 06:01:24;;;;;;;8.02;6.40;;;;;;;11.29;nan;100998.88;4979662;28;98472;-70
2021/01/03 06:04:06;;;;;;;5.85;5.35;;;;;;;11.28;nan;101002.31;4962660;28;98374;-70
2021/01/03 06:06:59;;;;;;;6.95;5.80;;;;;;;11.26;nan;101003.09;4981342;28;97349;-70
2021/01/03 06:09:46;;;;;;;8.10;6.72;;;;;;;11.23;nan;101003.81;4980604;28;97802;-70
2021/01/03 06:12:32;;;;;;;7.00;6.30;;;;;;;11.23;nan;101009.97;4980816;28;96999;-71
2021/01/03 06:15:04;;;;;;;6.63;5.95;;;;;;;11.22;nan;101002.91;4980098;28;99114;-72
2021/01/03 06:17:57;;;;;;;7.70;6.30;;;;;;;11.21;nan;101001.09;4980415;28;98082;-72
2021/01/03 06:20:27;;;;;;;9.10;7.72;;;;;;;11.30;nan;101007.66;4962027;28;96808;-71
2021/01/03 06:23:00;;;;;;;9.02;6.82;;;;;;;11.29;nan;101009.41;4980407;28;97417;-71
2021/01/03 06:25:32;;;;;;;8.60;6.65;;;;;;;11.25;nan;101002.16;4978638;28;98544;-72
2021/01/03 06:28:05;;;;;;;9.57;7.18;;;;;;;11.23;nan;101006.44;4960969;28;98038;-71
2021/01/03 06:30:58;;;;;;;7.93;6.82;;;;;;;11.23;nan;101004.72;4982220;28;97056;-71
2021/01/03 06:33:58;;;;;;;8.38;6.75;;;;;;;11.19;nan;101010.63;4980092;28;98675;-71
2021/01/03 06:36:47;;;;;;;8.93;6.88;;;;;;;11.15;nan;101002.47;4981880;28;102154;-71
2021/01/03 06:39:32;;;;;;;7.82;7.03;;;;;;;11.12;nan;101005.88;4980847;28;97479;-73
2021/01/03 06:42:01;;;;;;;9.60;7.53;;;;;;;11.11;nan;101005.78;4978701;28;97006;-71
2021/01/03 06:45:20;;;;;;;12.80;9.93;;;;;;;11.12;nan;100999.69;4960687;28;97550;-71
2021/01/03 06:48:14;;;;;;;10.82;7.97;;;;;;;11.06;nan;101004.59;4977444;28;97613;-71
2021/01/03 06:50:49;;;;;;;10.25;7.10;;;;;;;11.07;nan;101002.09;4980108;28;96792;-69
2021/01/03 06:53:44;;;;;;;10.48;7.95;;;;;;;11.01;nan;101000.81;4978540;28;98201;-69
2021/01/03 06:56:48;;;;;;;12.63;8.43;;;;;;;11.00;nan;100999.03;4977900;28;97155;-70
2021/01/03 06:59:44;;;;;;;11.32;7.57;;;;;;;10.98;nan;101003.31;4970907;28;97949;-71
2021/01/03 07:02:13;;;;;;;13.00;7.88;;;;;;;10.95;nan;100993.50;4979742;28;97358;-71
2021/01/03 07:04:40;;;;;;;9.82;7.80;;;;;;;10.93;nan;101002.16;4978240;28;97080;-70
2021/01/03 07:07:18;;;;;;;11.27;7.63;;;;;;;10.92;nan;100995.97;4979485;28;97839;-70
2021/01/03 07:09:57;;;;;;;12.20;8.40;;;;;;;10.87;nan;101005.34;4961709;28;97947;-70
2021/01/03 07:12:35;;;;;;;12.75;7.68;;;;;;;10.81;nan;101004.09;4983178;28;96754;-70
2021/01/03 07:15:07;;;;;;;10.23;8.25;;;;;;;10.79;nan;101016.22;4963370;28;97130;-71
2021/01/03 07:18:04;;;;;;;11.65;7.72;;;;;;;10.73;nan;101006.28;4979108;28;98022;-71
2021/01/03 07:20:36;;;;;;;11.57;7.22;;;;;;;10.75;nan;101011.63;4944100;28;97769;-71
2021/01/03 07:23:14;;;;;;;10.80;7.97;;;;;;;10.72;nan;101008.81;4960334;28;97617;-71
2021/01/03 07:26:24;;;;;;;12.82;8.30;;;;;;;10.68;nan;101009.47;4979605;28;97738;-71
2021/01/03 07:28:56;;;;;;;12.60;8.45;;;;;;;10.66;nan;101011.09;4961158;28;97487;-75
2021/01/03 07:31:40;;;;;;;10.85;7.90;;;;;;;10.64;nan;101007.47;4960419;28;98271;-71
2021/01/03 07:34:11;;;;;;;10.38;7.70;;;;;;;10.63;nan;101014.47;4963275;28;98307;-72
2021/01/03 07:36:45;;;;;;;11.70;8.10;;;;;;;10.61;nan;101008.22;4946557;28;97235;-71
2021/01/03 07:39:29;;;;;;;14.57;7.88;;;;;;;10.59;nan;101008.94;4978894;28;97795;-71
2021/01/03 07:42:15;;;;;;;14.23;9.18;;;;;;;10.61;nan;101002.06;4977763;28;97823;-71
2021/01/03 07:44:43;;;;;;;13.05;8.77;;;;;;;10.59;nan;101009.88;4948350;28;97514;-71
2021/01/03 07:47:10;;;;;;;12.32;8.63;;;;;;;10.53;nan;100995.50;4978941;28;97468;-71
2021/01/03 07:49:44;;;;;;;12.98;7.38;;;;;;;10.51;nan;100999.75;4976564;28;97840;-71
2021/01/03 07:52:50;;;;;;;12.88;8.27;;;;;;;10.51;nan;101003.25;4945681;28;100806;-71
2021/01/03 07:55:30;;;;;;;13.77;7.55;;;;;;;10.47;nan;101000.41;4979565;28;97935;-71
2021/01/03 07:58:03;;;;;;;13.20;8.25;;;;;;;10.46;nan;100993.31;4960297;28;97877;-71
2021/01/03 08:00:32;;;;;;;11.32;8.15;;;;;;;10.43;nan;100990.53;4979209;28;99059;-71
2021/01/03 08:03:04;;;;;;;13.55;8.60;;;;;;;10.39;nan;100978.03;4961004;28;100764;-71
2021/01/03 08:05:33;;;;;;;9.75;7.30;;;;;;;10.37;nan;100984.91;4962331;28;97883;-72
2021/01/03 08:08:04;;;;;;;12.07;7.78;;;;;;;10.33;nan;100978.59;4954033;28;98975;-72
2021/01/03 08:10:33;;;;;;;11.73;7.47;;;;;;;10.30;nan;100977.50;4977984;28;99823;-72
2021/01/03 08:13:06;;;;;;;11.80;6.97;;;;;;;10.28;nan;100980.06;4978392;28;97567;-72
2021/01/03 08:15:34;;;;;;;9.02;7.03;;;;;;;10.27;nan;100982.59;4976543;28;97546;-72
2021/01/03 08:18:04;;;;;;;11.63;7.70;;;;;;;10.25;nan;100976.34;4959770;28;97195;-72
2021/01/03 08:20:32;;;;;;;12.05;7.68;;;;;;;10.23;nan;100971.00;4960989;28;99000;-73
2021/01/03 08:23:09;;;;;;;11.82;7.70;;;;;;;10.22;nan;100970.94;4978134;28;97942;-72
2021/01/03 08:25:37;;;;;;;14.20;7.80;;;;;;;10.23;nan;100971.00;4959361;28;98297;-72
2021/01/03 08:28:08;;;;;;;10.80;7.65;;;;;;;10.19;nan;100964.69;4978101;28;97093;-72
2021/01/03 08:30:37;;;;;;;12.77;7.50;;;;;;;10.17;nan;100971.56;4978588;28;98608;-74
2021/01/03 08:33:07;;;;;;;161.75;61.08;;;;;;;10.18;nan;100964.59;4962883;28;100004;-74
2021/01/03 08:35:34;;;;;;;38.88;22.25;;;;;;;10.18;nan;100957.63;4978795;28;98284;-75
2021/01/03 08:38:02;;;;;;;15.57;11.00;;;;;;;10.19;nan;100958.53;4963149;28;97210;-74
2021/01/03 08:40:32;;;;;;;11.52;8.05;;;;;;;10.22;nan;100958.69;4980314;28;97752;-74
2021/01/03 08:43:04;;;;;;;12.52;8.07;;;;;;;10.20;nan;100961.22;4980339;28;98376;-73
2021/01/03 08:45:37;;;;;;;10.48;7.28;;;;;;;10.17;nan;100955.81;4960776;28;97668;-73
2021/01/03 08:48:07;;;;;;;11.02;8.23;;;;;;;10.17;nan;100961.06;4963136;28;97805;-73
2021/01/03 08:50:37;;;;;;;11.95;8.38;;;;;;;10.19;nan;100956.81;4982196;28;100171;-73
2021/01/03 08:53:07;;;;;;;11.82;8.13;;;;;;;10.23;nan;100965.78;4981302;28;98836;-73
2021/01/03 08:56:02;;;;;;;10.32;7.65;;;;;;;10.29;nan;100965.22;4978698;28;98019;-75
2021/01/03 08:58:35;;;;;;;13.82;8.10;;;;;;;10.31;nan;100966.22;4982141;28;97465;-78
2021/01/03 09:01:05;;;;;;;13.15;9.07;;;;;;;10.31;nan;100960.97;4977242;28;97505;-77
2021/01/03 09:03:33;;;;;;;32.58;19.20;;;;;;;10.32;nan;100962.75;4958449;28;99184;-75
2021/01/03 09:06:02;;;;;;;21.42;12.27;;;;;;;10.35;nan;100968.16;4963652;28;98014;-76
2021/01/03 09:08:31;;;;;;;19.02;10.85;;;;;;;10.34;nan;100969.00;4980141;28;98037;-74
2021/01/03 09:11:04;;;;;;;10.77;8.48;;;;;;;10.33;nan;100964.56;4980887;28;100871;-76
2021/01/03 09:13:32;;;;;;;10.43;7.60;;;;;;;10.33;nan;100970.72;4982004;28;100125;-73
2021/01/03 09:16:08;;;;;;;10.30;7.40;;;;;;;10.28;nan;100964.31;4981441;28;97349;-73
2021/01/03 09:18:39;;;;;;;12.90;8.10;;;;;;;10.25;nan;100969.38;4979798;28;97689;-73
2021/01/03 09:21:11;;;;;;;11.50;7.60;;;;;;;10.28;nan;100973.88;4964099;28;97452;-72
2021/01/03 09:23:41;;;;;;;11.05;7.88;;;;;;;10.28;nan;100972.19;4931462;28;100794;-73
2021/01/03 09:26:10;;;;;;;9.85;7.65;;;;;;;10.28;nan;100973.88;4980346;28;97385;-73
2021/01/03 09:28:43;;;;;;;11.63;8.05;;;;;;;10.29;nan;100970.47;4979236;28;99622;-74
2021/01/03 09:31:15;;;;;;;11.57;7.93;;;;;;;10.31;nan;100969.72;4977526;28;99533;-74
2021/01/03 09:33:48;;;;;;;11.70;8.13;;;;;;;10.35;nan;100965.53;4961388;28;97971;-74
2021/01/03 09:36:26;;;;;;;10.30;8.02;;;;;;;10.33;nan;100975.09;4977857;28;97811;-73
2021/01/03 09:39:09;;;;;;;9.73;7.10;;;;;;;10.36;nan;100976.16;4978400;28;97279;-73
2021/01/03 09:41:45;;;;;;;44.75;21.92;;;;;;;10.38;nan;100977.16;4980961;28;98992;-73
2021/01/03 09:44:23;;;;;;;13.00;8.75;;;;;;;10.39;nan;100964.91;4977936;28;96913;-73
2021/01/03 09:46:57;;;;;;;8.45;7.25;;;;;;;10.35;nan;100961.19;4980567;28;97332;-72
2021/01/03 09:49:36;;;;;;;27.33;16.17;;;;;;;10.35;nan;100961.19;4962328;28;97123;-73
2021/01/03 09:52:07;;;;;;;12.88;9.23;;;;;;;10.31;nan;100968.84;4974356;28;98074;-73
2021/01/03 09:54:40;;;;;;;12.82;8.73;;;;;;;10.30;nan;100965.28;4979123;28;97255;-71
2021/01/03 09:57:13;;;;;;;15.10;8.45;;;;;;;10.30;nan;100972.25;4976065;28;97646;-72
2021/01/03 09:59:40;;;;;;;12.25;7.53;;;;;;;10.35;nan;100976.03;4979347;28;97878;-73
2021/01/03 10:02:18;;;;;;;12.38;7.70;;;;;;;10.33;nan;100967.19;4972865;28;98404;-72
2021/01/03 10:04:46;;;;;;;10.50;7.97;;;;;;;10.34;nan;100963.75;4956028;28;97437;-72
2021/01/03 10:07:18;;;;;;;37.15;17.17;;;;;;;10.34;nan;100964.66;4975615;28;97555;-71
2021/01/03 10:09:54;;;;;;;34.50;18.10;;;;;;;10.35;nan;100970.78;4979617;28;98171;-73
2021/01/03 10:12:36;;;;;;;15.20;10.27;;;;;;;10.36;nan;100967.38;4979138;28;97598;-73
2021/01/03 10:15:14;;;;;;;14.07;10.25;;;;;;;10.36;nan;100964.75;4979776;28;100523;-72
2021/01/03 10:17:44;;;;;;;15.50;10.63;;;;;;;10.37;nan;100969.16;4980567;28;97865;-73
2021/01/03 10:20:34;;;;;;;12.02;8.10;;;;;;;10.38;nan;100960.47;4978969;28;97491;-73
2021/01/03 10:23:15;;;;;;;10.63;8.38;;;;;;;10.36;nan;100956.88;4958128;28;99225;-72
2021/01/03 10:25:46;;;;;;;10.95;8.25;;;;;;;10.38;nan;100952.59;4977263;28;99085;-73
2021/01/03 10:28:15;;;;;;;11.55;7.43;;;;;;;10.36;nan;100956.88;4978790;28;97584;-73
2021/01/03 10:30:43;;;;;;;12.52;7.72;;;;;;;10.35;nan;100958.56;4964900;28;97058;-78
2021/01/03 10:33:12;;;;;;;26.58;16.17;;;;;;;10.33;nan;100947.06;4953849;28;98427;-73
2021/01/03 10:35:40;;;;;;;15.15;9.45;;;;;;;10.32;nan;100949.63;4973120;28;102921;-74
2021/01/03 10:38:08;;;;;;;13.38;7.78;;;;;;;10.34;nan;100951.53;4973858;28;98516;-73
2021/01/03 10:40:36;;;;;;;12.20;7.88;;;;;;;10.31;nan;100956.59;4975136;28;98529;-74
2021/01/03 10:43:04;;;;;;;18.02;10.57;;;;;;;10.30;nan;100948.63;4973513;28;99080;-72
2021/01/03 10:45:31;;;;;;;26.17;15.98;;;;;;;10.32;nan;100947.00;4962016;28;99278;-73
2021/01/03 10:47:58;;;;;;;17.95;11.00;;;;;;;10.34;nan;100942.75;4977629;28;96832;-73
2021/01/03 10:50:27;;;;;;;11.57;8.73;;;;;;;10.37;nan;100950.78;4951847;28;97359;-74
2021/01/03 10:52:55;;;;;;;12.93;8.52;;;;;;;10.37;nan;100942.91;4978653;28;97963;-72
2021/01/03 10:55:24;;;;;;;12.40;7.75;;;;;;;10.36;nan;100947.28;4979705;28;98102;-73
2021/01/03 10:57:51;;;;;;;12.45;8.48;;;;;;;10.37;nan;100945.53;4978469;28;97736;-71
2021/01/03 11:00:20;;;;;;;17.17;8.38;;;;;;;10.38;nan;100944.72;4978744;28;97230;-76
2021/01/03 11:02:48;;;;;;;13.23;7.65;;;;;;;10.39;nan;100946.53;4979225;28;99207;-75
2021/01/03 11:05:17;;;;;;;17.10;8.65;;;;;;;10.38;nan;100942.09;4975760;28;98736;-75
2021/01/03 11:07:46;;;;;;;16.95;8.27;;;;;;;10.35;nan;100934.03;4958941;28;97819;-76
2021/01/03 11:10:14;;;;;;;14.82;8.65;;;;;;;10.33;nan;100939.19;4977474;28;97196;-75
2021/01/03 11:12:42;;;;;;;34.80;16.83;;;;;;;10.38;nan;100936.84;4977620;28;97912;-75
2021/01/03 11:15:13;;;;;;;13.05;9.00;;;;;;;10.36;nan;100930.59;4959470;28;98385;-73
2021/01/03 11:17:52;;;;;;;13.82;8.48;;;;;;;10.39;nan;100930.75;4978091;28;98204;-74
2021/01/03 11:20:20;;;;;;;16.25;8.57;;;;;;;10.41;nan;100934.38;4978016;28;98172;-74
2021/01/03 11:22:48;;;;;;;13.65;8.02;;;;;;;10.45;nan;100932.03;4960411;28;97436;-73
2021/01/03 11:25:16;;;;;;;16.75;8.60;;;;;;;10.45;nan;100920.63;4961681;28;97665;-73
2021/01/03 11:27:44;;;;;;;15.02;8.30;;;;;;;10.45;nan;100931.13;4979018;28;96928;-74
2021/01/03 11:30:12;;;;;;;35.83;20.17;;;;;;;10.45;nan;100928.50;4962186;28;97701;-74
2021/01/03 11:32:42;;;;;;;18.75;11.68;;;;;;;10.44;nan;100924.06;4978031;28;99181;-73
2021/01/03 11:35:11;;;;;;;14.10;8.60;;;;;;;10.43;nan;100922.25;4979211;28;100400;-75
2021/01/03 11:37:39;;;;;;;13.60;8.40;;;;;;;10.44;nan;100916.19;4978437;28;97275;-75
2021/01/03 11:40:09;;;;;;;14.38;8.38;;;;;;;10.45;nan;100921.53;4962114;28;97774;-74
2021/01/03 11:42:39;;;;;;;12.18;9.20;;;;;;;10.40;nan;100929.97;4978373;28;98900;-76
2021/01/03 11:45:08;;;;;;;12.95;8.93;;;;;;;10.41;nan;100924.78;4980449;28;98275;-75
2021/01/03 11:47:36;;;;;;;15.85;8.93;;;;;;;10.43;nan;100920.53;4980185;28;96858;-73
2021/01/03 11:50:05;;;;;;;11.40;7.63;;;;;;;10.46;nan;100925.94;4979402;28;97571;-77
2021/01/03 11:52:32;;;;;;;10.77;7.70;;;;;;;10.46;nan;100920.69;4959500;28;98271;-73
2021/01/03 11:55:20;;;;;;;12.48;7.63;;;;;;;10.47;nan;100919.91;4962048;28;98104;-74
2021/01/03 11:57:47;;;;;;;12.40;8.73;;;;;;;10.46;nan;100917.16;4939328;28;97688;-71